Time;durP1;ratioP1;P1;durP2;ratioP2;P2;SDS_P1;SDS_P2;PMS_P1;PMS_P2;Temp;Humidity;BMP_temperature;BMP_pressure;BME280_temperature;BME280_humidity;BME280_pressure;Samples;Min_cycle;Max_cycle;Signal;HPM_P1;HPM_P2
2022/12/04 00:01:45;;;;;;;34.40;19.77;;;;;;;8.74;100.00;100694.81;5071480;28;20279;-79
2022/12/04 00:04:12;;;;;;;38.40;20.60;;;;;;;8.81;100.00;100691.38;5071475;28;20671;-80
2022/12/04 00:06:38;;;;;;;37.57;21.50;;;;;;;8.68;100.00;100688.31;5071317;28;20219;-79
2022/12/04 00:09:05;;;;;;;40.30;21.00;;;;;;;8.51;100.00;100688.31;5071482;28;20663;-79
2022/12/04 00:11:33;;;;;;;37.13;21.47;;;;;;;8.42;100.00;100690.06;5071344;28;20196;-81
2022/12/04 00:14:01;;;;;;;41.03;20.50;;;;;;;8.21;100.00;100691.38;5072329;28;20241;-80
2022/12/04 00:16:29;;;;;;;40.63;21.37;;;;;;;8.07;100.00;100697.16;5072223;28;20196;-81
2022/12/04 00:18:56;;;;;;;40.93;21.70;;;;;;;8.10;100.00;100673.91;5071954;28;20223;-80
2022/12/04 00:21:25;;;;;;;41.10;21.63;;;;;;;8.36;100.00;100695.97;5071361;28;20241;-78
2022/12/04 00:23:52;;;;;;;44.07;22.90;;;;;;;8.41;100.00;100708.78;5071772;28;20188;-78
2022/12/04 00:26:21;;;;;;;41.37;21.87;;;;;;;8.51;100.00;100704.22;5071539;28;20249;-78
2022/12/04 00:28:48;;;;;;;57.57;24.90;;;;;;;8.49;100.00;100695.59;5071427;28;20248;-78
2022/12/04 00:31:18;;;;;;;45.13;23.67;;;;;;;8.42;100.00;100700.66;5071159;28;20249;-79
2022/12/04 00:33:47;;;;;;;51.47;25.90;;;;;;;8.51;100.00;100704.22;5071281;28;20192;-76
2022/12/04 00:36:16;;;;;;;41.97;23.13;;;;;;;8.59;100.00;100701.63;5071426;28;20188;-78
2022/12/04 00:38:44;;;;;;;55.40;24.50;;;;;;;8.59;100.00;100694.53;5071402;28;20227;-78
2022/12/04 00:41:11;;;;;;;63.77;26.47;;;;;;;8.62;100.00;100696.03;5071123;28;20253;-78
2022/12/04 00:43:38;;;;;;;55.83;25.23;;;;;;;8.66;100.00;100698.19;5071283;28;20663;-79
2022/12/04 00:46:04;;;;;;;53.50;23.50;;;;;;;8.57;100.00;100698.28;5074986;28;20614;-78
2022/12/04 00:48:31;;;;;;;55.47;22.77;;;;;;;8.57;100.00;100693.00;5075793;28;20540;-78
2022/12/04 00:51:02;;;;;;;51.23;22.50;;;;;;;8.31;100.00;100692.97;5074511;28;20191;-78
2022/12/04 00:53:29;;;;;;;57.50;23.73;;;;;;;8.22;100.00;100693.88;5074632;28;20220;-76
2022/12/04 00:55:56;;;;;;;50.40;25.07;;;;;;;8.31;100.00;100689.47;5074725;28;20203;-78
2022/12/04 00:58:23;;;;;;;59.43;24.33;;;;;;;8.28;100.00;100689.78;5075318;28;20219;-78
2022/12/04 01:00:50;;;;;;;51.47;23.43;;;;;;;8.27;100.00;100691.59;5074963;28;20192;-78
2022/12/04 01:03:16;;;;;;;54.17;22.67;;;;;;;8.28;100.00;100697.72;5075453;28;20196;-79
2022/12/04 01:05:45;;;;;;;59.30;25.27;;;;;;;8.30;100.00;100685.19;5074264;28;20199;-79
2022/12/04 01:08:13;;;;;;;53.83;23.63;;;;;;;8.24;100.00;100691.06;5074241;28;20191;-77
2022/12/04 01:10:41;;;;;;;58.27;26.10;;;;;;;8.16;100.00;100693.59;5074551;28;20196;-77
2022/12/04 01:13:08;;;;;;;63.50;26.27;;;;;;;8.08;100.00;100685.63;5074221;28;20668;-77
2022/12/04 01:15:39;;;;;;;61.80;25.40;;;;;;;8.10;100.00;100681.00;5074510;28;20249;-77
2022/12/04 01:18:06;;;;;;;55.33;22.97;;;;;;;8.11;100.00;100701.16;5074449;28;20273;-77
2022/12/04 01:20:33;;;;;;;53.17;23.83;;;;;;;8.18;100.00;100691.66;5074384;28;20281;-77
2022/12/04 01:22:59;;;;;;;54.50;23.47;;;;;;;7.95;100.00;100693.06;5074339;28;20250;-77
2022/12/04 01:25:28;;;;;;;71.27;26.33;;;;;;;7.87;100.00;100706.22;5073943;28;20188;-76
2022/12/04 01:27:54;;;;;;;52.90;23.73;;;;;;;7.93;100.00;100702.97;5073850;28;20231;-75
2022/12/04 01:30:21;;;;;;;55.57;24.63;;;;;;;8.08;100.00;100691.72;5074456;28;20195;-78
2022/12/04 01:32:48;;;;;;;56.07;24.70;;;;;;;8.16;100.00;100709.47;5074019;28;20195;-75
2022/12/04 01:35:15;;;;;;;51.23;23.20;;;;;;;7.93;100.00;100687.91;5074183;28;20203;-78
2022/12/04 01:37:41;;;;;;;52.27;24.67;;;;;;;7.92;100.00;100701.31;5073634;28;20253;-76
2022/12/04 01:40:13;;;;;;;46.53;22.17;;;;;;;7.83;100.00;100707.50;5073640;28;20702;-77
2022/12/04 01:42:41;;;;;;;45.70;21.60;;;;;;;7.89;100.00;100706.91;5074000;28;20256;-75
2022/12/04 01:45:39;;;;;;;55.67;21.70;;;;;;;7.79;100.00;100711.41;5073885;28;20187;-76
2022/12/04 01:48:13;;;;;;;51.50;20.57;;;;;;;7.88;100.00;100699.97;5073497;28;20262;-76
2022/12/04 01:50:42;;;;;;;46.20;21.13;;;;;;;7.90;100.00;100706.75;5074364;28;20267;-77
2022/12/04 01:53:09;;;;;;;49.03;21.83;;;;;;;7.98;100.00;100700.72;5073877;28;20608;-77
2022/12/04 01:55:35;;;;;;;44.13;19.90;;;;;;;7.99;100.00;100699.72;5074126;28;20569;-76
2022/12/04 01:58:04;;;;;;;49.37;20.40;;;;;;;7.90;100.00;100682.09;5073265;28;20656;-76
2022/12/04 02:00:31;;;;;;;46.60;21.67;;;;;;;7.95;100.00;100698.34;5073480;28;20273;-75
2022/12/04 02:02:58;;;;;;;57.43;20.80;;;;;;;7.99;100.00;100691.78;5073484;28;20230;-78
2022/12/04 02:05:25;;;;;;;50.63;21.47;;;;;;;8.01;100.00;100692.47;5073490;28;20251;-79
2022/12/04 02:07:56;;;;;;;55.03;21.87;;;;;;;8.04;100.00;100692.19;5072941;28;20192;-78
2022/12/04 02:10:26;;;;;;;49.43;22.13;;;;;;;8.06;100.00;100682.28;5073016;28;20779;-77
2022/12/04 02:12:59;;;;;;;49.87;22.10;;;;;;;8.19;100.00;100682.72;5073654;28;20196;-77
2022/12/04 02:15:34;;;;;;;49.07;22.27;;;;;;;8.13;100.00;100678.84;5073069;28;20188;-77
2022/12/04 02:18:09;;;;;;;48.03;21.30;;;;;;;7.87;100.00;100687.69;5073014;28;20609;-78
2022/12/04 02:20:40;;;;;;;52.47;21.83;;;;;;;7.92;100.00;100680.16;5073376;28;20725;-76
2022/12/04 02:23:34;;;;;;;49.50;22.90;;;;;;;8.08;100.00;100690.91;5073135;28;20184;-77
2022/12/04 02:26:16;;;;;;;57.53;22.77;;;;;;;8.12;100.00;100693.09;5073739;28;20544;-76
2022/12/04 02:28:49;;;;;;;52.33;22.73;;;;;;;8.14;100.00;100680.56;5073071;28;20188;-76
2022/12/04 02:31:20;;;;;;;51.33;23.27;;;;;;;8.08;100.00;100685.63;5072429;28;20180;-75
2022/12/04 02:33:54;;;;;;;52.03;20.87;;;;;;;8.05;100.00;100685.91;5072645;28;20249;-75
2022/12/04 02:36:24;;;;;;;45.20;21.67;;;;;;;8.00;100.00;100696.13;5072589;28;20645;-75
2022/12/04 02:38:55;;;;;;;44.40;21.83;;;;;;;7.91;100.00;100689.06;5072426;28;20215;-75
2022/12/04 02:41:25;;;;;;;40.17;19.50;;;;;;;8.02;100.00;100691.50;5072571;28;20656;-75
2022/12/04 02:43:58;;;;;;;55.37;21.73;;;;;;;8.04;100.00;100681.59;5072414;28;20188;-77
2022/12/04 02:46:30;;;;;;;53.67;22.37;;;;;;;7.99;100.00;100702.38;5073656;28;20238;-77
2022/12/04 02:49:01;;;;;;;55.13;21.77;;;;;;;8.03;100.00;100687.84;5072351;28;20233;-76
2022/12/04 02:51:33;;;;;;;52.80;21.10;;;;;;;8.10;100.00;100681.00;5072584;28;20732;-76
2022/12/04 02:54:04;;;;;;;45.03;21.33;;;;;;;8.18;100.00;100683.72;5072692;28;20184;-78
2022/12/04 02:56:35;;;;;;;50.60;21.87;;;;;;;8.30;100.00;100687.81;5072541;28;20184;-78
2022/12/04 02:59:08;;;;;;;48.50;20.93;;;;;;;8.26;100.00;100684.66;5072569;28;20257;-77
2022/12/04 03:01:38;;;;;;;43.10;21.30;;;;;;;8.30;100.00;100693.13;5072295;28;20722;-78
2022/12/04 03:04:12;;;;;;;50.20;22.17;;;;;;;8.18;100.00;100692.50;5071587;28;20663;-78
2022/12/04 03:06:42;;;;;;;50.43;21.80;;;;;;;8.16;100.00;100689.16;5071455;28;20254;-77
2022/12/04 03:09:15;;;;;;;40.23;20.70;;;;;;;8.21;100.00;100688.75;5072028;28;20196;-77
2022/12/04 03:11:46;;;;;;;44.20;21.17;;;;;;;8.27;100.00;100683.66;5072168;28;20241;-78
2022/12/04 03:14:20;;;;;;;45.40;20.03;;;;;;;8.30;100.00;100682.53;5071922;28;20237;-78
2022/12/04 03:16:51;;;;;;;40.57;20.33;;;;;;;7.95;100.00;100679.84;5073176;28;20260;-76
2022/12/04 03:19:21;;;;;;;43.20;21.53;;;;;;;7.95;100.00;100662.16;5071646;28;20233;-76
2022/12/04 03:21:51;;;;;;;43.17;20.73;;;;;;;8.16;100.00;100680.38;5071999;28;20192;-77
2022/12/04 03:24:23;;;;;;;44.20;20.13;;;;;;;8.13;100.00;100683.34;5071833;28;20243;-77
2022/12/04 03:26:58;;;;;;;43.87;20.87;;;;;;;7.97;100.00;100689.28;5072950;28;20184;-78
2022/12/04 03:29:34;;;;;;;41.97;20.13;;;;;;;8.02;100.00;100681.75;5072243;28;20195;-79
2022/12/04 03:32:09;;;;;;;39.30;19.27;;;;;;;8.05;100.00;100684.06;5052664;28;20184;-79
2022/12/04 03:34:42;;;;;;;35.00;19.57;;;;;;;8.07;100.00;100686.56;5052122;28;20253;-78
2022/12/04 03:37:16;;;;;;;35.60;19.20;;;;;;;8.08;100.00;100681.13;5051894;28;20645;-75
2022/12/04 03:39:51;;;;;;;37.20;19.43;;;;;;;8.09;100.00;100684.63;5052631;28;20216;-76
2022/12/04 03:42:21;;;;;;;35.53;19.23;;;;;;;8.08;100.00;100685.63;5052773;28;20261;-75
2022/12/04 03:44:58;;;;;;;34.27;18.43;;;;;;;8.13;100.00;100678.84;5052308;28;20196;-76
2022/12/04 03:47:32;;;;;;;42.13;19.87;;;;;;;8.07;100.00;100683.94;5051715;28;20220;-76
2022/12/04 03:50:02;;;;;;;38.00;17.80;;;;;;;8.17;100.00;100685.50;5052192;28;20188;-76
2022/12/04 03:52:35;;;;;;;45.27;20.60;;;;;;;8.21;100.00;100686.09;5051873;28;20196;-77
2022/12/04 03:55:07;;;;;;;40.87;20.13;;;;;;;8.25;100.00;100688.28;5051765;28;20181;-78
2022/12/04 03:57:39;;;;;;;45.07;20.33;;;;;;;8.03;100.00;100677.28;5052127;28;20243;-77
2022/12/04 04:00:16;;;;;;;49.73;22.03;;;;;;;7.99;100.00;100683.84;5051682;28;20259;-77
2022/12/04 04:02:46;;;;;;;49.83;22.13;;;;;;;8.10;100.00;100681.00;5052753;28;20186;-77
2022/12/04 04:05:14;;;;;;;43.97;21.30;;;;;;;8.10;100.00;100683.63;5051509;28;20211;-77
2022/12/04 04:07:46;;;;;;;48.37;21.57;;;;;;;8.13;100.00;100692.09;5060463;28;20242;-78
2022/12/04 04:10:16;;;;;;;53.97;22.57;;;;;;;8.09;100.00;100693.38;5072568;28;20244;-78
2022/12/04 04:24:13;;;;;;;49.27;21.70;;;;;;;8.10;100.00;100689.78;5071694;28;20215;-78
2022/12/04 04:24:14;;;;;;;41.50;20.50;;;;;;;8.04;100.00;100694.84;5044527;28;20666;-77
2022/12/04 04:26:44;;;;;;;41.73;20.47;;;;;;;7.91;100.00;100686.41;5075157;28;20181;-76
2022/12/04 04:29:11;;;;;;;39.23;19.53;;;;;;;7.92;100.00;100688.91;5074947;28;20230;-76
2022/12/04 04:31:43;;;;;;;36.47;19.67;;;;;;;7.93;100.00;100697.69;5075278;28;20188;-77
2022/12/04 04:34:18;;;;;;;34.47;17.90;;;;;;;7.96;100.00;100697.41;5074952;28;20640;-79
2022/12/04 04:36:55;;;;;;;39.63;18.90;;;;;;;7.85;100.00;100706.38;5075818;28;20280;-79
2022/12/04 04:39:30;;;;;;;30.77;17.53;;;;;;;7.76;100.00;100703.78;5075175;28;20245;-79
2022/12/04 04:42:03;;;;;;;31.77;17.30;;;;;;;7.74;100.00;100703.09;5076070;28;20270;-80
2022/12/04 04:44:39;;;;;;;31.03;18.10;;;;;;;7.75;100.00;100696.81;5075249;28;20271;-77
2022/12/04 04:47:13;;;;;;;31.40;18.47;;;;;;;7.85;100.00;100701.09;5076040;28;20258;-77
2022/12/04 04:49:43;;;;;;;28.17;17.03;;;;;;;7.85;100.00;100695.81;5074541;28;20656;-79
2022/12/04 04:52:10;;;;;;;31.07;18.93;;;;;;;7.83;100.00;100696.91;5075625;28;20192;-78
2022/12/04 04:54:38;;;;;;;32.23;19.37;;;;;;;7.84;100.00;100698.59;5075125;28;20192;-77
2022/12/04 04:57:05;;;;;;;26.67;17.17;;;;;;;7.95;100.00;100711.59;5074880;28;20199;-77
2022/12/04 04:59:33;;;;;;;32.10;18.60;;;;;;;7.79;100.00;100714.91;5074333;28;20219;-77
2022/12/04 05:02:00;;;;;;;32.63;17.37;;;;;;;7.87;100.00;100714.16;5075051;28;20622;-77
2022/12/04 05:04:28;;;;;;;32.90;18.13;;;;;;;7.86;100.00;100712.47;5074659;28;20249;-77
2022/12/04 05:06:54;;;;;;;25.03;16.90;;;;;;;7.90;100.00;100724.44;5074662;28;20196;-80
2022/12/04 05:09:21;;;;;;;25.03;16.37;;;;;;;7.82;100.00;100727.84;5074597;28;20249;-78
2022/12/04 05:11:48;;;;;;;30.00;17.83;;;;;;;7.85;100.00;100726.69;5074206;28;20196;-76
2022/12/04 05:14:14;;;;;;;32.03;18.80;;;;;;;7.79;100.00;100737.84;5074137;28;20735;-76
2022/12/04 05:16:41;;;;;;;24.43;17.23;;;;;;;7.73;100.00;100727.88;5075652;28;20196;-79
2022/12/04 05:21:53;;;;;;;25.50;16.13;;;;;;;7.78;100.00;100736.19;5074505;28;20182;-76
2022/12/04 05:24:20;;;;;;;24.10;14.53;;;;;;;7.69;100.00;100727.34;5074295;28;20647;-76
2022/12/04 05:26:46;;;;;;;22.37;15.17;;;;;;;7.73;100.00;100733.16;5074514;28;20188;-76
2022/12/04 05:29:13;;;;;;;24.10;15.10;;;;;;;7.77;100.00;100729.25;5074122;28;20253;-77
2022/12/04 05:31:40;;;;;;;26.07;15.97;;;;;;;7.57;100.00;100738.25;5073577;28;20219;-78
2022/12/04 05:34:07;;;;;;;20.87;14.53;;;;;;;7.69;100.00;100726.50;5074341;28;20188;-77
2022/12/04 05:36:33;;;;;;;24.73;16.50;;;;;;;7.76;100.00;100746.13;5073773;28;20241;-75
2022/12/04 05:39:01;;;;;;;22.97;14.40;;;;;;;7.88;100.00;100747.56;5073641;28;20194;-76
2022/12/04 05:41:28;;;;;;;20.57;14.03;;;;;;;7.91;100.00;100752.53;5073714;28;20271;-77
2022/12/04 05:43:55;;;;;;;20.87;14.73;;;;;;;7.89;100.00;100749.22;5073901;28;20675;-76
2022/12/04 05:46:22;;;;;;;25.67;15.10;;;;;;;7.86;100.00;100745.06;5073620;28;20188;-76
2022/12/04 05:48:48;;;;;;;23.93;16.20;;;;;;;7.70;100.00;100746.69;5074023;28;20274;-76
2022/12/04 05:51:16;;;;;;;26.93;16.67;;;;;;;7.78;100.00;100746.78;5073509;28;20249;-82
2022/12/04 05:53:42;;;;;;;22.07;15.53;;;;;;;7.84;100.00;100740.91;5073351;28;20663;-73
2022/12/04 05:56:10;;;;;;;21.70;14.93;;;;;;;7.93;100.00;100746.13;5073493;28;20192;-70
2022/12/04 05:58:38;;;;;;;22.17;15.47;;;;;;;7.98;100.00;100740.41;5073115;28;20257;-71
2022/12/04 06:01:10;;;;;;;23.00;14.80;;;;;;;7.78;100.00;100741.50;5073416;28;20276;-72
2022/12/04 06:03:36;;;;;;;22.37;15.93;;;;;;;7.89;100.00;100751.88;5072910;28;20660;-76
2022/12/04 06:06:04;;;;;;;24.20;16.20;;;;;;;8.04;100.00;100753.84;5073387;28;20636;-74
2022/12/04 06:08:31;;;;;;;21.80;15.03;;;;;;;8.10;100.00;100761.22;5072884;28;20279;-73
2022/12/04 06:10:58;;;;;;;22.93;16.10;;;;;;;8.20;100.00;100750.53;5073006;28;20741;-73
2022/12/04 06:13:26;;;;;;;19.17;14.40;;;;;;;7.97;100.00;100757.25;5074188;28;20241;-75
2022/12/04 06:15:53;;;;;;;21.30;15.20;;;;;;;8.05;100.00;100760.00;5072903;28;20199;-76
2022/12/04 06:18:19;;;;;;;24.20;14.97;;;;;;;8.12;100.00;100758.41;5072920;28;20192;-70
2022/12/04 06:20:46;;;;;;;21.77;14.77;;;;;;;8.08;100.00;100763.16;5073175;28;20296;-71
2022/12/04 06:23:13;;;;;;;21.67;14.30;;;;;;;8.18;100.00;100771.03;5072809;28;20225;-73
2022/12/04 06:25:39;;;;;;;17.60;13.57;;;;;;;8.17;100.00;100769.41;5072525;28;20600;-73
2022/12/04 06:28:06;;;;;;;21.40;14.40;;;;;;;8.24;100.00;100765.16;5073060;28;20265;-74
2022/12/04 06:30:35;;;;;;;22.57;14.90;;;;;;;8.19;100.00;100772.72;5072863;28;20191;-76
2022/12/04 06:33:02;;;;;;;22.70;15.73;;;;;;;8.25;100.00;100764.22;5073343;28;20198;-75
2022/12/04 06:35:29;;;;;;;21.40;14.43;;;;;;;7.92;100.00;100764.81;5072794;28;20613;-74
2022/12/04 06:37:56;;;;;;;23.33;14.20;;;;;;;7.87;100.00;100767.91;5072660;28;20196;-75
2022/12/04 06:40:22;;;;;;;25.97;18.03;;;;;;;7.93;100.00;100771.75;5072248;28;20276;-75
2022/12/04 06:42:49;;;;;;;19.90;14.30;;;;;;;7.88;100.00;100774.84;5071825;28;20656;-75
2022/12/04 06:45:16;;;;;;;21.70;15.50;;;;;;;7.93;100.00;100772.56;5072433;28;20196;-80
2022/12/04 06:47:44;;;;;;;26.23;15.67;;;;;;;8.10;100.00;100778.91;5072484;28;20192;-77
2022/12/04 06:50:11;;;;;;;31.73;19.97;;;;;;;8.06;100.00;100777.53;5072269;28;20199;-83
2022/12/04 06:52:38;;;;;;;22.90;14.67;;;;;;;8.08;100.00;100781.69;5067964;28;20212;-78
2022/12/04 06:55:06;;;;;;;15.73;11.53;;;;;;;9.03;100.00;100762.38;5052491;28;20193;-65
2022/12/04 06:57:33;;;;;;;25.67;15.40;;;;;;;9.87;100.00;100761.53;5046221;28;20251;-64
2022/12/04 07:00:00;;;;;;;18.13;13.97;;;;;;;10.01;100.00;100778.66;5037294;28;20270;-75
2022/12/04 07:02:26;;;;;;;18.30;14.43;;;;;;;9.71;100.00;100782.69;5046153;28;20210;-76
2022/12/04 07:04:56;;;;;;;17.70;13.13;;;;;;;9.14;99.26;100756.84;5050708;28;20664;-79
2022/12/04 07:07:23;;;;;;;18.00;12.70;;;;;;;9.04;99.43;100776.47;5050160;28;20677;-80
2022/12/04 07:09:50;;;;;;;15.77;11.67;;;;;;;8.72;100.00;100777.06;5050442;28;20288;-80
2022/12/04 07:12:16;;;;;;;17.53;13.67;;;;;;;8.63;100.00;100787.75;5051590;28;20665;-73
2022/12/04 07:14:43;;;;;;;21.10;13.60;;;;;;;8.52;100.00;100780.00;5050608;28;20196;-74
2022/12/04 07:17:10;;;;;;;18.43;13.87;;;;;;;8.55;100.00;100774.44;5051657;28;20200;-78
2022/12/04 07:19:38;;;;;;;22.10;13.43;;;;;;;8.46;100.00;100785.94;5051546;28;20236;-78
2022/12/04 07:22:07;;;;;;;16.43;12.53;;;;;;;8.27;100.00;100794.00;5051880;28;20275;-75
2022/12/04 07:24:36;;;;;;;19.10;13.77;;;;;;;8.37;100.00;100784.19;5051530;28;20271;-82
2022/12/04 07:27:03;;;;;;;29.77;14.67;;;;;;;8.41;100.00;100782.91;5050794;28;20284;-78
2022/12/04 07:29:30;;;;;;;19.00;13.93;;;;;;;8.48;100.00;100789.25;5050964;28;20642;-73
2022/12/04 07:31:57;;;;;;;16.80;13.60;;;;;;;8.44;100.00;100796.66;5042331;28;20205;-81
2022/12/04 07:34:23;;;;;;;18.17;14.30;;;;;;;8.32;100.00;100789.06;5038406;28;20189;-78
2022/12/04 07:36:50;;;;;;;20.17;14.17;;;;;;;8.18;100.00;100781.63;5039869;28;20208;-77
2022/12/04 07:39:18;;;;;;;23.87;14.67;;;;;;;8.18;100.00;100793.06;5031429;28;20251;-80
2022/12/04 07:41:45;;;;;;;22.97;14.80;;;;;;;8.15;100.00;100797.81;5043024;28;20319;-80
2022/12/04 07:44:11;;;;;;;18.50;14.17;;;;;;;8.14;100.00;100790.84;5051497;28;20197;-72
2022/12/04 07:46:38;;;;;;;18.90;15.13;;;;;;;8.18;100.00;100797.50;5051538;28;20189;-73
2022/12/04 07:49:05;;;;;;;24.67;14.27;;;;;;;8.25;100.00;100793.34;5051169;28;20197;-72
2022/12/04 07:51:31;;;;;;;22.93;15.97;;;;;;;8.23;100.00;100790.81;5051306;28;20521;-73
2022/12/04 07:53:58;;;;;;;27.90;16.33;;;;;;;8.22;100.00;100794.47;5053743;28;20251;-75
2022/12/04 07:56:26;;;;;;;20.33;14.47;;;;;;;8.29;100.00;100800.00;5055167;28;20203;-75
2022/12/04 07:58:53;;;;;;;23.00;16.00;;;;;;;8.36;100.00;100785.16;5055251;28;20193;-74
2022/12/04 08:01:22;;;;;;;21.00;14.20;;;;;;;8.21;100.00;100784.03;5054962;28;20220;-76
2022/12/04 08:03:51;;;;;;;21.23;14.83;;;;;;;8.30;100.00;100791.06;5053005;28;20195;-72
2022/12/04 08:06:19;;;;;;;20.27;14.70;;;;;;;8.31;100.00;100803.31;5054829;28;20196;-73
2022/12/04 08:08:46;;;;;;;18.13;14.03;;;;;;;8.41;100.00;100798.78;5053898;28;20262;-73
2022/12/04 08:11:16;;;;;;;29.70;15.40;;;;;;;8.28;100.00;100799.16;5053761;28;20629;-69
2022/12/04 08:13:44;;;;;;;18.17;13.97;;;;;;;8.26;100.00;100798.47;5053179;28;20219;-73
2022/12/04 08:16:13;;;;;;;22.03;13.50;;;;;;;8.20;100.00;100806.13;5054565;28;20661;-74
2022/12/04 08:18:40;;;;;;;20.77;13.50;;;;;;;8.19;100.00;100799.16;5054784;28;20188;-73
2022/12/04 08:21:09;;;;;;;23.97;14.33;;;;;;;8.01;100.00;100796.47;5054496;28;20773;-71
2022/12/04 08:23:36;;;;;;;22.73;14.83;;;;;;;7.98;100.00;100796.81;5053448;28;20197;-73
2022/12/04 08:26:04;;;;;;;23.67;14.77;;;;;;;7.96;100.00;100777.59;5054817;28;20196;-75
2022/12/04 08:28:37;;;;;;;25.13;15.43;;;;;;;8.20;100.00;100798.19;5053561;28;20661;-71
2022/12/04 08:31:07;;;;;;;25.57;15.63;;;;;;;8.16;100.00;100796.81;5039969;28;20193;-71
2022/12/04 08:33:34;;;;;;;23.20;14.30;;;;;;;8.15;100.00;100798.66;5033133;28;20247;-71
2022/12/04 08:36:00;;;;;;;24.03;15.63;;;;;;;8.13;100.00;100799.78;5033420;28;20198;-71
2022/12/04 08:38:27;;;;;;;24.33;15.17;;;;;;;8.25;100.00;100798.63;5034358;28;20193;-72
2022/12/04 08:40:54;;;;;;;27.47;16.33;;;;;;;8.38;100.00;100794.59;5033984;28;20264;-70
2022/12/04 08:43:20;;;;;;;29.10;15.47;;;;;;;8.36;100.00;100779.84;5033586;28;20197;-70
2022/12/04 08:45:55;;;;;;;25.80;14.30;;;;;;;8.46;100.00;100801.81;5034771;28;20198;-69
2022/12/04 08:48:23;;;;;;;28.00;15.60;;;;;;;8.53;100.00;100798.41;5034740;28;20183;-70
2022/12/04 08:50:49;;;;;;;25.90;15.73;;;;;;;8.51;100.00;100794.25;5034003;28;20197;-70
2022/12/04 08:53:16;;;;;;;23.83;14.47;;;;;;;8.53;100.00;100803.69;5034294;28;20193;-72
2022/12/04 08:55:43;;;;;;;34.97;16.50;;;;;;;8.51;100.00;100799.53;5034037;28;20546;-71
2022/12/04 08:58:09;;;;;;;22.87;15.53;;;;;;;8.46;100.00;100796.53;5034216;28;20201;-72
2022/12/04 09:00:36;;;;;;;21.40;14.33;;;;;;;8.54;100.00;100788.66;5033939;28;20216;-71
2022/12/04 09:03:03;;;;;;;25.90;15.40;;;;;;;8.47;100.00;100785.78;5034076;28;20248;-72
2022/12/04 09:05:31;;;;;;;29.17;15.90;;;;;;;8.34;100.00;100792.44;5041628;28;20188;-71
2022/12/04 09:07:58;;;;;;;27.87;15.40;;;;;;;8.35;100.00;100783.50;5053820;28;20189;-71
2022/12/04 09:10:25;;;;;;;23.50;14.30;;;;;;;8.32;100.00;100786.44;5054382;28;20262;-71
2022/12/04 09:12:51;;;;;;;30.53;15.50;;;;;;;8.31;100.00;100776.84;5054052;28;20189;-72
2022/12/04 09:15:18;;;;;;;26.57;15.37;;;;;;;8.39;100.00;100768.97;5054325;28;20188;-71
2022/12/04 09:17:45;;;;;;;22.53;14.40;;;;;;;8.45;100.00;100768.38;5053772;28;20660;-72
2022/12/04 09:20:13;;;;;;;27.20;14.03;;;;;;;8.43;100.00;100786.22;5053971;28;20231;-71
2022/12/04 09:22:41;;;;;;;26.70;15.63;;;;;;;8.48;100.00;100778.66;5054103;28;20224;-72
2022/12/04 09:25:08;;;;;;;27.03;14.57;;;;;;;8.40;100.00;100779.41;5053924;28;20258;-71
2022/12/04 09:27:36;;;;;;;24.17;15.00;;;;;;;8.21;100.00;100760.19;5053790;28;20196;-71
2022/12/04 09:30:04;;;;;;;25.07;14.30;;;;;;;8.28;100.00;100761.25;5053191;28;20605;-71
2022/12/04 09:32:30;;;;;;;33.03;17.33;;;;;;;8.31;100.00;100755.66;5053091;28;20608;-72
2022/12/04 09:34:57;;;;;;;28.67;15.43;;;;;;;8.20;100.00;100755.84;5053231;28;20690;-72
2022/12/04 09:37:24;;;;;;;32.03;15.40;;;;;;;8.33;100.00;100749.22;5052896;28;20197;-72
2022/12/04 09:39:52;;;;;;;28.63;14.47;;;;;;;8.36;100.00;100754.22;5053396;28;20193;-71
2022/12/04 09:42:33;;;;;;;26.73;14.07;;;;;;;8.31;100.00;100751.22;5052779;28;20276;-71
2022/12/04 09:45:06;;;;;;;23.57;13.53;;;;;;;8.37;100.00;100752.44;5053189;28;20181;-72
2022/12/04 09:47:36;;;;;;;32.67;13.47;;;;;;;8.42;100.00;100742.22;5052575;28;20189;-72
2022/12/04 09:50:10;;;;;;;24.17;13.67;;;;;;;8.30;100.00;100746.06;5053684;28;20197;-72
2022/12/04 09:52:47;;;;;;;28.67;13.53;;;;;;;8.32;100.00;100746.72;5053354;28;20196;-72
2022/12/04 09:55:20;;;;;;;31.40;16.13;;;;;;;8.34;100.00;100734.19;5052943;28;20640;-71
2022/12/04 09:57:49;;;;;;;31.17;15.47;;;;;;;8.37;100.00;100740.00;5052767;28;20869;-72
2022/12/04 10:00:19;;;;;;;32.63;14.73;;;;;;;8.46;100.00;100743.56;5052711;28;20620;-72
2022/12/04 10:02:51;;;;;;;30.13;15.27;;;;;;;8.41;100.00;100751.13;5052395;28;20216;-71
2022/12/04 10:05:22;;;;;;;45.07;17.80;;;;;;;8.47;100.00;100739.94;5052852;28;20196;-72
2022/12/04 10:08:00;;;;;;;21.97;12.27;;;;;;;8.44;100.00;100734.94;5052645;28;20662;-72
2022/12/04 10:10:36;;;;;;;26.50;12.30;;;;;;;8.36;100.00;100734.84;5052912;28;20184;-72
2022/12/04 10:13:16;;;;;;;29.07;12.77;;;;;;;8.32;100.00;100738.78;5052458;28;20257;-71
2022/12/04 10:15:53;;;;;;;18.30;11.77;;;;;;;8.36;100.00;100729.56;5052515;28;20314;-72
2022/12/04 10:18:31;;;;;;;18.23;11.37;;;;;;;8.38;100.00;100728.41;5052067;28;20644;-72
2022/12/04 10:21:13;;;;;;;22.67;11.93;;;;;;;8.44;100.00;100719.03;5052722;28;20289;-71
2022/12/04 10:23:54;;;;;;;17.67;10.60;;;;;;;8.47;100.00;100719.59;5052440;28;20230;-71
2022/12/04 10:26:28;;;;;;;15.73;11.73;;;;;;;8.48;100.00;100728.34;5052722;28;20580;-71
2022/12/04 10:28:59;;;;;;;18.53;11.03;;;;;;;8.46;100.00;100722.38;5052557;28;20188;-71
2022/12/04 10:31:27;;;;;;;14.57;11.00;;;;;;;8.36;100.00;100721.63;5052529;28;20190;-71
2022/12/04 10:33:58;;;;;;;13.00;9.93;;;;;;;8.40;100.00;100717.69;5052448;28;20200;-71
2022/12/04 10:36:31;;;;;;;13.97;10.03;;;;;;;8.38;100.00;100709.06;5052596;28;20250;-71
2022/12/04 10:39:00;;;;;;;17.53;10.97;;;;;;;8.38;100.00;100717.00;5052186;28;20275;-71
2022/12/04 10:41:34;;;;;;;11.07;9.87;;;;;;;8.37;100.00;100710.06;5052184;28;20223;-71
2022/12/04 10:44:00;;;;;;;9.03;8.13;;;;;;;8.27;100.00;100711.94;5052146;28;20185;-71
2022/12/04 10:46:29;;;;;;;9.77;8.67;;;;;;;8.22;100.00;100706.28;5052298;28;20242;-72
2022/12/04 10:49:01;;;;;;;10.47;9.50;;;;;;;7.95;100.00;100709.78;5052124;28;20247;-72
2022/12/04 10:51:34;;;;;;;11.80;9.47;;;;;;;8.04;100.00;100700.94;5052258;28;20250;-72
2022/12/04 10:54:01;;;;;;;11.03;9.30;;;;;;;8.13;100.00;100704.50;5051816;28;20203;-71
2022/12/04 10:56:29;;;;;;;14.77;11.90;;;;;;;8.11;100.00;100690.59;5051726;28;20224;-72
2022/12/04 10:58:57;;;;;;;10.97;9.60;;;;;;;8.11;100.00;100690.59;5052133;28;20219;-72
2022/12/04 11:01:24;;;;;;;13.73;11.07;;;;;;;8.09;100.00;100677.50;5051702;28;20773;-72
2022/12/04 11:03:59;;;;;;;13.20;11.80;;;;;;;8.19;100.00;100677.44;5051771;28;20188;-72
2022/12/04 11:06:26;;;;;;;13.70;8.83;;;;;;;8.16;100.00;100672.44;5052044;28;20197;-72
2022/12/04 11:08:54;;;;;;;9.63;8.67;;;;;;;8.12;100.00;100679.00;5052045;28;20188;-72
2022/12/04 11:11:25;;;;;;;8.50;7.80;;;;;;;8.09;100.00;100680.16;5051631;28;20262;-73
2022/12/04 11:14:03;;;;;;;8.57;7.70;;;;;;;8.08;100.00;100673.19;5051743;28;20180;-72
2022/12/04 11:16:37;;;;;;;10.40;9.30;;;;;;;8.05;100.00;100662.09;5051764;28;20664;-72
2022/12/04 11:19:17;;;;;;;10.60;8.50;;;;;;;8.04;100.00;100652.50;5051811;28;20311;-72
2022/12/04 11:21:44;;;;;;;10.43;9.37;;;;;;;8.09;100.00;100658.16;5051542;28;20271;-71
2022/12/04 11:24:19;;;;;;;12.77;8.80;;;;;;;7.89;100.00;100669.88;5051542;28;20246;-72
2022/12/04 11:26:47;;;;;;;9.90;8.23;;;;;;;7.96;100.00;100657.72;5051680;28;20567;-71
2022/12/04 11:29:19;;;;;;;9.93;8.97;;;;;;;7.89;100.00;100651.34;5051111;28;20196;-72
2022/12/04 11:31:51;;;;;;;9.93;8.93;;;;;;;7.92;100.00;100653.72;5051762;28;20272;-72